Terminal Aerodrome Forecast
Issued by NWS

Home | Current Version | Previous Version | Text Only | Print | Product List | Glossary On
Versions: 1 2 3 4 5 6 7 8 9 10 11 12 13
313
FTUS43 KPAH 110520
TAFCGI
TAF
KCGI 110520Z 1106/1206 16009KT P6SM OVC050
     FM111800 18013KT P6SM -RA OVC025
     FM120000 22006KT 3SM -RA BR OVC007=

USA.gov is the U.S. government's official web portal to all federal, state and local government web resources and services.